createdAt,value
2019-03-29T00:00:03.584Z,23.27
2019-03-29T00:02:32.044Z,23.77
2019-03-29T00:05:00.491Z,22.27
2019-03-29T00:07:39.387Z,24.10
2019-03-29T00:09:59.467Z,24.87
2019-03-29T00:12:27.965Z,23.13
2019-03-29T00:14:56.463Z,21.60
2019-03-29T00:17:24.978Z,25.17
2019-03-29T00:19:54.136Z,22.33
2019-03-29T00:22:22.686Z,24.40
2019-03-29T00:24:51.136Z,28.23
2019-03-29T00:27:19.616Z,24.83
2019-03-29T00:29:48.104Z,23.37
2019-03-29T00:32:16.543Z,24.80
2019-03-29T00:34:45.025Z,26.47
2019-03-29T00:37:13.478Z,23.33
2019-03-29T00:39:41.961Z,28.70
2019-03-29T00:42:10.423Z,27.47
2019-03-29T00:44:38.894Z,24.73
2019-03-29T00:47:07.337Z,24.97
2019-03-29T00:49:35.812Z,25.27
2019-03-29T00:52:04.272Z,28.40
2019-03-29T00:54:32.703Z,24.07
2019-03-29T00:57:01.247Z,27.87
2019-03-29T00:59:29.695Z,26.40
2019-03-29T01:01:58.164Z,27.43
2019-03-29T01:04:26.647Z,28.17
2019-03-29T01:06:55.166Z,30.20
2019-03-29T01:09:23.637Z,25.17
2019-03-29T01:11:52.085Z,26.57
2019-03-29T01:14:20.539Z,27.77
2019-03-29T01:16:49.023Z,27.40
2019-03-29T01:19:17.487Z,26.03
2019-03-29T01:21:45.943Z,29.03
2019-03-29T01:24:14.403Z,31.20
2019-03-29T01:26:42.851Z,29.20
2019-03-29T01:29:11.327Z,27.67
2019-03-29T01:31:40.236Z,29.07
2019-03-29T01:34:10.751Z,25.60
2019-03-29T01:36:39.302Z,27.27
2019-03-29T01:39:07.825Z,29.07
2019-03-29T01:41:36.305Z,27.47
2019-03-29T01:44:04.920Z,28.80
2019-03-29T01:46:33.400Z,28.33
2019-03-29T01:49:02.746Z,28.40
2019-03-29T01:51:31.237Z,29.93
2019-03-29T01:53:59.772Z,26.77
2019-03-29T01:56:28.225Z,28.77
2019-03-29T01:58:56.763Z,26.93
2019-03-29T02:01:25.230Z,28.67
2019-03-29T02:03:53.677Z,27.80
2019-03-29T02:06:22.138Z,28.47
2019-03-29T02:08:50.603Z,25.47
2019-03-29T02:11:19.065Z,24.73
2019-03-29T02:13:47.504Z,26.33
2019-03-29T02:16:16.046Z,24.70
2019-03-29T02:18:44.487Z,27.50
2019-03-29T02:21:13.094Z,26.17
2019-03-29T02:23:41.535Z,27.50
2019-03-29T02:26:10.010Z,28.63
2019-03-29T02:28:38.491Z,26.00
2019-03-29T02:31:07.080Z,27.37
2019-03-29T02:33:35.528Z,27.20
2019-03-29T02:36:04.328Z,25.87
2019-03-29T02:38:32.814Z,24.87
2019-03-29T02:41:01.259Z,28.10
2019-03-29T02:43:29.727Z,24.70
2019-03-29T02:45:58.225Z,23.60
2019-03-29T02:48:26.714Z,24.90
2019-03-29T02:50:55.156Z,23.13
2019-03-29T02:53:23.649Z,22.07
2019-03-29T02:55:52.164Z,20.83
2019-03-29T02:58:21.113Z,22.93
2019-03-29T03:00:49.714Z,22.70
2019-03-29T03:03:18.187Z,24.70
2019-03-29T03:05:46.623Z,24.47
2019-03-29T03:08:15.176Z,26.90
2019-03-29T03:10:43.645Z,27.23
2019-03-29T03:13:12.114Z,30.87
2019-03-29T03:15:40.759Z,27.33
2019-03-29T03:18:09.360Z,25.27
2019-03-29T03:20:37.831Z,26.40
2019-03-29T03:23:06.348Z,24.43
2019-03-29T03:25:34.791Z,23.40
2019-03-29T03:28:03.327Z,21.77
2019-03-29T03:30:31.943Z,24.43
2019-03-29T03:33:00.524Z,25.33
2019-03-29T03:35:28.994Z,22.00
2019-03-29T03:37:57.427Z,23.77
2019-03-29T03:40:25.899Z,25.27
2019-03-29T03:42:54.451Z,24.77
2019-03-29T03:45:22.924Z,25.47
2019-03-29T03:47:51.386Z,23.83
2019-03-29T03:50:40.521Z,23.10
2019-03-29T03:53:09.872Z,26.87
2019-03-29T03:55:42.372Z,20.50
2019-03-29T03:58:12.041Z,21.20
2019-03-29T04:00:55.330Z,21.90
2019-03-29T04:03:24.662Z,25.50
2019-03-29T04:05:53.724Z,26.00
2019-03-29T04:08:22.305Z,26.13
2019-03-29T04:10:50.852Z,27.23
2019-03-29T04:13:19.324Z,27.43
2019-03-29T04:15:47.936Z,29.00
2019-03-29T04:18:16.853Z,29.40
2019-03-29T04:20:45.477Z,25.40
2019-03-29T04:23:13.932Z,24.83
2019-03-29T04:25:42.471Z,29.93
2019-03-29T04:28:10.959Z,30.30
2019-03-29T04:30:39.412Z,26.93
2019-03-29T04:33:11.085Z,27.93
2019-03-29T04:35:38.057Z,28.80
2019-03-29T04:38:06.594Z,28.77
2019-03-29T04:40:35.079Z,31.67
2019-03-29T04:43:22.910Z,25.47
2019-03-29T04:45:51.418Z,25.00
2019-03-29T04:48:19.905Z,26.53
2019-03-29T04:50:48.415Z,27.50
2019-03-29T04:53:16.903Z,32.40
2019-03-29T04:55:45.388Z,34.97
2019-03-29T04:58:13.835Z,29.03
2019-03-29T05:00:42.331Z,31.73
2019-03-29T05:03:10.771Z,28.47
2019-03-29T05:05:39.232Z,26.87
2019-03-29T05:08:07.718Z,25.63
2019-03-29T05:10:36.162Z,26.50
2019-03-29T05:13:04.793Z,28.43
2019-03-29T05:15:33.266Z,29.13
2019-03-29T05:18:01.738Z,31.57
2019-03-29T05:20:30.200Z,32.90
2019-03-29T05:22:58.683Z,35.10
2019-03-29T05:25:27.148Z,32.13
2019-03-29T05:27:55.626Z,34.70
2019-03-29T05:30:24.084Z,33.57
2019-03-29T05:32:52.526Z,30.70
2019-03-29T05:35:21.011Z,32.93
2019-03-29T05:37:49.492Z,32.70
2019-03-29T05:40:18.015Z,33.73
2019-03-29T05:42:46.487Z,36.37
2019-03-29T05:45:14.936Z,33.33
2019-03-29T05:47:43.415Z,29.47
2019-03-29T05:50:12.107Z,30.97
2019-03-29T05:52:40.572Z,28.90
2019-03-29T05:55:09.885Z,35.43
2019-03-29T05:57:38.307Z,31.30
2019-03-29T06:00:08.692Z,28.90
2019-03-29T06:02:37.163Z,25.17
2019-03-29T06:05:05.748Z,29.93
2019-03-29T06:07:34.223Z,28.33
2019-03-29T06:10:02.740Z,27.20
2019-03-29T06:12:31.266Z,32.13
2019-03-29T06:14:59.754Z,30.07
2019-03-29T06:17:28.262Z,25.03
2019-03-29T06:19:56.769Z,27.17
2019-03-29T06:22:25.244Z,25.87
2019-03-29T06:24:53.710Z,27.30
2019-03-29T06:27:22.192Z,26.23
2019-03-29T06:29:50.636Z,24.37
2019-03-29T06:32:19.102Z,23.93
2019-03-29T06:34:47.554Z,26.23
2019-03-29T06:37:18.857Z,26.27
2019-03-29T06:39:48.264Z,27.73
2019-03-29T06:42:16.727Z,27.27
2019-03-29T06:44:45.205Z,32.10
2019-03-29T06:47:13.651Z,30.47
2019-03-29T06:49:42.123Z,27.70
2019-03-29T06:52:10.619Z,27.80
2019-03-29T06:54:39.116Z,27.83
2019-03-29T06:57:07.591Z,31.73
2019-03-29T06:59:36.679Z,31.17
2019-03-29T07:02:05.354Z,31.93
2019-03-29T07:04:33.862Z,27.47
2019-03-29T07:07:02.341Z,29.97
2019-03-29T07:09:30.787Z,25.20
2019-03-29T07:11:59.230Z,26.33
2019-03-29T07:14:27.705Z,27.63
2019-03-29T07:16:56.147Z,26.57
2019-03-29T07:19:24.624Z,26.60
2019-03-29T07:21:53.097Z,24.93
2019-03-29T07:24:21.567Z,28.93
2019-03-29T07:26:50.084Z,36.93
2019-03-29T07:29:18.555Z,27.37
2019-03-29T07:31:46.999Z,28.97
2019-03-29T07:34:15.470Z,24.70
2019-03-29T07:36:43.961Z,27.23
2019-03-29T07:39:12.434Z,26.13
2019-03-29T07:41:40.902Z,24.67
2019-03-29T07:44:09.386Z,25.13
2019-03-29T07:46:38.157Z,23.83
2019-03-29T07:49:06.630Z,27.83
2019-03-29T07:51:35.159Z,27.03
2019-03-29T07:54:03.718Z,30.23
2019-03-29T07:56:32.189Z,30.83
2019-03-29T07:59:00.662Z,28.13
2019-03-29T08:01:32.310Z,26.23
2019-03-29T08:03:59.364Z,24.87
2019-03-29T08:06:27.834Z,31.70
2019-03-29T08:08:56.285Z,28.50
2019-03-29T08:11:26.252Z,29.23
2019-03-29T08:13:55.000Z,29.10
2019-03-29T08:16:23.482Z,25.93
2019-03-29T08:18:51.918Z,25.10
2019-03-29T08:21:20.391Z,24.93
2019-03-29T08:23:48.836Z,24.83
2019-03-29T08:26:17.465Z,26.33
2019-03-29T08:28:45.911Z,23.20
2019-03-29T08:31:14.387Z,24.93
2019-03-29T08:33:42.873Z,24.93
2019-03-29T08:36:11.319Z,20.97
2019-03-29T08:38:39.766Z,19.57
2019-03-29T08:41:08.279Z,21.47
2019-03-29T08:43:36.736Z,20.00
2019-03-29T08:46:05.228Z,20.63
2019-03-29T08:48:33.683Z,21.40
2019-03-29T08:51:02.175Z,21.60
2019-03-29T08:53:30.623Z,23.20
2019-03-29T08:55:59.098Z,23.07
2019-03-29T08:58:27.719Z,20.93
2019-03-29T09:00:56.219Z,20.53
2019-03-29T09:03:25.103Z,20.67
2019-03-29T09:05:54.098Z,23.00
2019-03-29T09:08:22.699Z,22.60
2019-03-29T09:10:51.159Z,21.53
2019-03-29T09:13:19.915Z,21.33
2019-03-29T09:15:48.389Z,20.20
2019-03-29T09:18:16.892Z,20.60
2019-03-29T09:20:45.358Z,20.10
2019-03-29T09:23:13.839Z,19.33
2019-03-29T09:25:42.351Z,20.87
2019-03-29T09:28:10.827Z,20.97
2019-03-29T09:30:39.267Z,22.10
2019-03-29T09:33:07.813Z,18.87
2019-03-29T09:35:36.351Z,20.67
2019-03-29T09:38:04.935Z,20.43
2019-03-29T09:40:33.492Z,20.00
2019-03-29T09:43:09.110Z,21.17
2019-03-29T09:45:32.199Z,23.47
2019-03-29T09:48:00.677Z,19.07
2019-03-29T09:50:29.127Z,19.15
2019-03-29T09:53:01.006Z,18.35
2019-03-29T09:55:27.778Z,18.45
2019-03-29T09:57:56.221Z,19.32
2019-03-29T10:00:24.766Z,21.27
2019-03-29T10:02:53.228Z,20.55
2019-03-29T10:05:21.769Z,22.17
2019-03-29T10:07:50.301Z,21.30
2019-03-29T10:10:18.744Z,19.20
2019-03-29T10:12:47.228Z,18.57
2019-03-29T10:15:15.679Z,20.65
2019-03-29T10:17:44.144Z,17.77
2019-03-29T10:20:12.777Z,24.75
2019-03-29T10:22:41.245Z,20.60
2019-03-29T10:25:19.220Z,19.77
2019-03-29T10:27:39.968Z,19.00
2019-03-29T10:30:10.262Z,19.35
2019-03-29T10:32:38.740Z,19.92
2019-03-29T10:35:08.048Z,18.80
2019-03-29T10:37:36.495Z,18.87
2019-03-29T10:40:06.577Z,19.05
2019-03-29T10:42:35.022Z,20.48
2019-03-29T10:45:03.658Z,18.10
2019-03-29T10:47:43.283Z,20.52
2019-03-29T10:50:02.337Z,18.48
2019-03-29T10:52:30.806Z,19.37
2019-03-29T10:54:59.286Z,18.37
2019-03-29T10:57:27.732Z,17.45
2019-03-29T10:59:56.188Z,18.52
2019-03-29T11:02:24.724Z,21.10
2019-03-29T11:04:53.191Z,21.68
2019-03-29T11:07:21.663Z,20.45
2019-03-29T11:09:50.106Z,17.87
2019-03-29T11:12:18.574Z,18.57
2019-03-29T11:14:47.022Z,17.95
2019-03-29T11:17:15.499Z,17.62
2019-03-29T11:19:44.021Z,18.77
2019-03-29T11:22:12.499Z,21.25
2019-03-29T11:24:40.938Z,20.17
2019-03-29T11:27:09.415Z,19.30
2019-03-29T11:29:37.884Z,18.27
2019-03-29T11:32:06.395Z,18.48
2019-03-29T11:34:34.883Z,19.45
2019-03-29T11:37:03.342Z,18.85
2019-03-29T11:39:31.921Z,19.95
2019-03-29T11:42:03.337Z,23.73
2019-03-29T11:44:30.632Z,21.42
2019-03-29T11:46:59.178Z,21.68
2019-03-29T11:49:27.627Z,18.02
2019-03-29T11:51:56.090Z,23.05
2019-03-29T11:54:24.536Z,20.08
2019-03-29T11:56:53.025Z,22.25
2019-03-29T11:59:21.546Z,21.75
2019-03-29T12:01:50.019Z,20.02
2019-03-29T12:04:18.574Z,21.82
2019-03-29T12:06:47.071Z,22.10
2019-03-29T12:09:15.515Z,21.10
2019-03-29T12:11:43.990Z,21.30
2019-03-29T12:14:12.452Z,19.85
2019-03-29T12:16:40.939Z,20.48
2019-03-29T12:19:09.400Z,21.42
2019-03-29T12:21:37.859Z,22.40
2019-03-29T12:24:06.347Z,22.95
2019-03-29T12:26:34.806Z,22.93
2019-03-29T12:29:03.270Z,21.70
2019-03-29T12:31:31.754Z,21.85
2019-03-29T12:34:00.215Z,23.18
2019-03-29T12:36:28.777Z,21.62
2019-03-29T12:38:57.246Z,20.57
2019-03-29T12:41:25.728Z,22.87
2019-03-29T12:43:55.741Z,21.05
2019-03-29T12:46:24.374Z,22.80
2019-03-29T12:48:53.011Z,21.85
2019-03-29T12:51:21.511Z,21.42
2019-03-29T12:53:49.991Z,22.05
2019-03-29T12:56:18.479Z,21.25
2019-03-29T12:58:46.943Z,24.37
2019-03-29T13:01:15.440Z,23.20
2019-03-29T13:03:43.951Z,21.27
2019-03-29T13:06:12.503Z,21.48
2019-03-29T13:08:40.968Z,20.08
2019-03-29T13:11:09.511Z,21.23
2019-03-29T13:13:37.958Z,23.15
2019-03-29T13:16:06.603Z,22.05
2019-03-29T13:18:35.087Z,20.55
2019-03-29T13:21:03.600Z,22.87
2019-03-29T13:23:32.159Z,22.85
2019-03-29T13:26:00.617Z,23.00
2019-03-29T13:28:29.225Z,22.42
2019-03-29T13:30:57.848Z,21.65
2019-03-29T13:33:26.345Z,20.82
2019-03-29T13:35:54.932Z,20.95
2019-03-29T13:38:23.491Z,22.62
2019-03-29T13:40:51.942Z,22.95
2019-03-29T13:43:20.434Z,21.50
2019-03-29T13:45:48.922Z,20.60
2019-03-29T13:48:17.404Z,20.82
2019-03-29T13:50:45.884Z,20.37
2019-03-29T13:53:14.348Z,21.07
2019-03-29T13:55:42.834Z,21.62
2019-03-29T13:58:11.305Z,20.48
2019-03-29T14:00:39.780Z,23.67
2019-03-29T14:03:08.244Z,23.87
2019-03-29T14:05:36.732Z,21.33
2019-03-29T14:08:05.252Z,30.57
2019-03-29T14:10:33.803Z,22.17
2019-03-29T14:13:02.288Z,21.52
2019-03-29T14:15:30.747Z,22.02
2019-03-29T14:17:59.235Z,24.02
2019-03-29T14:20:32.775Z,21.60
2019-03-29T14:23:02.300Z,22.07
2019-03-29T14:25:30.756Z,20.80
2019-03-29T14:27:59.297Z,21.68
2019-03-29T14:30:31.478Z,21.97
2019-03-29T14:32:59.996Z,23.52
2019-03-29T14:35:28.487Z,21.97
2019-03-29T14:37:56.951Z,21.35
2019-03-29T14:40:25.485Z,23.15
2019-03-29T14:42:54.298Z,24.70
2019-03-29T14:45:22.761Z,21.48
2019-03-29T14:47:51.249Z,21.85
2019-03-29T14:50:20.023Z,23.70
2019-03-29T14:52:48.570Z,22.42
2019-03-29T14:55:17.094Z,24.20
2019-03-29T14:57:45.584Z,21.65
2019-03-29T15:00:15.446Z,21.73
2019-03-29T15:02:43.893Z,21.37
2019-03-29T15:05:12.519Z,21.52
2019-03-29T15:07:42.810Z,22.48
2019-03-29T15:10:23.238Z,23.87
2019-03-29T15:12:51.715Z,22.82
2019-03-29T15:15:20.167Z,23.10
2019-03-29T15:17:48.650Z,22.98
2019-03-29T15:20:17.097Z,23.00
2019-03-29T15:22:45.566Z,24.07
2019-03-29T15:25:14.050Z,22.15
2019-03-29T15:27:42.535Z,21.85
2019-03-29T15:30:12.042Z,20.70
2019-03-29T15:32:40.504Z,21.05
2019-03-29T15:35:09.039Z,22.80
2019-03-29T15:37:37.600Z,22.42
2019-03-29T15:40:07.382Z,23.02
2019-03-29T15:42:35.856Z,23.05
2019-03-29T15:45:19.328Z,23.87
2019-03-29T15:47:36.364Z,22.32
2019-03-29T15:50:06.480Z,22.55
2019-03-29T15:52:34.962Z,22.65
2019-03-29T15:55:05.152Z,23.77
2019-03-29T15:57:33.643Z,22.13
2019-03-29T16:00:02.110Z,22.77
2019-03-29T16:02:30.601Z,24.18
2019-03-29T16:04:59.091Z,21.87
2019-03-29T16:07:27.607Z,22.25
2019-03-29T16:09:56.081Z,21.68
2019-03-29T16:12:24.554Z,22.70
2019-03-29T16:14:53.110Z,22.87
2019-03-29T16:17:21.633Z,22.45
2019-03-29T16:19:50.188Z,21.75
2019-03-29T16:22:18.633Z,25.02
2019-03-29T16:24:47.128Z,22.80
2019-03-29T16:27:15.598Z,23.05
2019-03-29T16:29:44.139Z,21.55
2019-03-29T16:32:12.678Z,27.80
2019-03-29T16:34:41.163Z,25.27
2019-03-29T16:37:09.652Z,22.22
2019-03-29T16:39:38.135Z,22.50
2019-03-29T16:42:06.719Z,22.35
2019-03-29T16:44:35.241Z,23.62
2019-03-29T16:47:03.778Z,23.50
2019-03-29T16:49:32.267Z,22.95
2019-03-29T16:52:00.805Z,23.15
2019-03-29T16:54:29.324Z,23.02
2019-03-29T16:56:57.797Z,23.05
2019-03-29T16:59:26.242Z,24.45
2019-03-29T17:01:54.737Z,21.90
2019-03-29T17:04:23.307Z,26.25
2019-03-29T17:06:51.801Z,23.65
2019-03-29T17:09:20.367Z,24.43
2019-03-29T17:11:48.854Z,24.70
2019-03-29T17:14:17.316Z,22.73
2019-03-29T17:16:45.876Z,23.50
2019-03-29T17:19:14.361Z,28.98
2019-03-29T17:21:42.812Z,23.98
2019-03-29T17:24:11.346Z,26.65
2019-03-29T17:26:39.936Z,25.40
2019-03-29T17:29:08.382Z,22.67
2019-03-29T17:31:36.939Z,23.80
2019-03-29T17:34:05.390Z,24.18
2019-03-29T17:36:33.872Z,22.27
2019-03-29T17:39:02.318Z,25.08
2019-03-29T17:41:30.784Z,25.82
2019-03-29T17:43:59.271Z,22.87
2019-03-29T17:46:27.747Z,24.10
2019-03-29T17:48:56.208Z,22.55
2019-03-29T17:51:24.683Z,22.90
2019-03-29T17:53:53.163Z,25.23
2019-03-29T17:56:21.624Z,23.22
2019-03-29T17:58:50.091Z,25.32
2019-03-29T18:01:18.550Z,27.05
2019-03-29T18:03:47.097Z,24.18
2019-03-29T18:06:15.539Z,26.30
2019-03-29T18:08:44.019Z,24.75
2019-03-29T18:11:12.505Z,27.75
2019-03-29T18:13:40.951Z,24.75
2019-03-29T18:16:09.428Z,27.17
2019-03-29T18:18:37.874Z,27.73
2019-03-29T18:21:06.364Z,26.52
2019-03-29T18:23:34.806Z,26.27
2019-03-29T18:26:03.288Z,31.10
2019-03-29T18:28:31.720Z,28.40
2019-03-29T18:31:00.199Z,32.23
2019-03-29T18:33:29.478Z,30.02
2019-03-29T18:35:57.963Z,33.88
2019-03-29T18:38:27.277Z,34.55
2019-03-29T18:40:55.728Z,31.95
2019-03-29T18:43:24.203Z,32.15
2019-03-29T18:45:52.681Z,34.83
2019-03-29T18:48:21.235Z,31.57
2019-03-29T18:50:49.718Z,35.52
2019-03-29T18:53:18.208Z,37.13
2019-03-29T18:55:47.100Z,47.20
2019-03-29T18:58:15.710Z,35.52
2019-03-29T19:00:44.159Z,36.37
2019-03-29T19:03:12.646Z,39.30
2019-03-29T19:05:41.106Z,39.67
2019-03-29T19:08:09.668Z,61.90
2019-03-29T19:10:38.112Z,38.87
2019-03-29T19:13:06.651Z,33.83
2019-03-29T19:15:35.126Z,50.60
2019-03-29T19:18:03.945Z,61.43
2019-03-29T19:20:32.427Z,43.43
2019-03-29T19:23:00.863Z,40.83
2019-03-29T19:25:29.375Z,40.57
2019-03-29T19:27:57.862Z,36.13
2019-03-29T19:30:26.503Z,37.17
2019-03-29T19:32:54.966Z,48.87
2019-03-29T19:35:23.443Z,41.27
2019-03-29T19:37:52.575Z,48.27
2019-03-29T19:40:21.110Z,36.80
2019-03-29T19:42:52.671Z,37.13
2019-03-29T19:45:21.261Z,33.83
2019-03-29T19:47:49.734Z,33.40
2019-03-29T19:50:18.722Z,32.57
2019-03-29T19:52:47.915Z,30.40
2019-03-29T19:55:16.402Z,30.33
2019-03-29T19:57:46.483Z,33.43
2019-03-29T20:00:15.563Z,33.23
2019-03-29T20:02:44.217Z,32.93
2019-03-29T20:05:28.360Z,38.10
2019-03-29T20:07:57.126Z,34.93
2019-03-29T20:10:25.718Z,36.30
2019-03-29T20:12:54.302Z,33.90
2019-03-29T20:15:22.794Z,36.20
2019-03-29T20:17:51.406Z,37.00
2019-03-29T20:20:25.188Z,38.10
2019-03-29T20:22:55.287Z,37.47
2019-03-29T20:25:24.213Z,41.80
2019-03-29T20:27:52.926Z,40.63
2019-03-29T20:30:21.543Z,39.83
2019-03-29T20:32:49.985Z,35.80
2019-03-29T20:35:18.527Z,34.23
2019-03-29T20:37:47.022Z,33.87
2019-03-29T20:40:21.209Z,32.13
2019-03-29T20:42:50.438Z,36.70
2019-03-29T20:45:19.111Z,35.03
2019-03-29T20:47:51.048Z,34.43
2019-03-29T20:50:18.048Z,32.97
2019-03-29T20:52:46.687Z,37.93
2019-03-29T20:55:15.839Z,42.27
2019-03-29T20:57:44.337Z,40.60
2019-03-29T21:00:14.325Z,39.77
2019-03-29T21:02:42.912Z,35.07
2019-03-29T21:05:11.516Z,36.57
2019-03-29T21:07:40.007Z,38.57
2019-03-29T21:10:08.798Z,37.23
2019-03-29T21:12:37.289Z,37.80
2019-03-29T21:15:06.596Z,36.20
2019-03-29T21:17:35.435Z,35.53
2019-03-29T21:20:08.372Z,33.50
2019-03-29T21:22:36.986Z,32.43
2019-03-29T21:25:07.601Z,34.47
2019-03-29T21:27:36.504Z,33.43
2019-03-29T21:30:09.899Z,37.23
2019-03-29T21:32:38.350Z,41.57
2019-03-29T21:35:07.679Z,33.27
2019-03-29T21:37:36.678Z,36.83
2019-03-29T21:40:07.747Z,33.70
2019-03-29T21:42:36.761Z,39.57
2019-03-29T21:45:07.835Z,32.13
2019-03-29T21:47:36.466Z,36.87
2019-03-29T21:50:11.143Z,34.53
2019-03-29T21:52:39.701Z,34.63
2019-03-29T21:55:09.398Z,34.63
2019-03-29T21:57:37.863Z,40.03
2019-03-29T22:00:12.412Z,50.27
2019-03-29T22:02:40.886Z,52.57
2019-03-29T22:05:10.561Z,44.93
2019-03-29T22:07:39.386Z,46.43
2019-03-29T22:10:09.763Z,44.87
2019-03-29T22:12:38.380Z,46.50
2019-03-29T22:15:09.265Z,42.70
2019-03-29T22:17:38.099Z,40.27
2019-03-29T22:20:10.304Z,42.23
2019-03-29T22:22:38.871Z,38.83
2019-03-29T22:25:08.498Z,41.10
2019-03-29T22:27:37.217Z,38.77
2019-03-29T22:30:08.057Z,37.83
2019-03-29T22:32:36.693Z,46.30
2019-03-29T22:35:09.026Z,40.80
2019-03-29T22:37:37.618Z,38.70
2019-03-29T22:40:07.935Z,41.17
2019-03-29T22:42:36.449Z,39.50
2019-03-29T22:45:07.260Z,40.50
2019-03-29T22:47:35.707Z,38.83
2019-03-29T22:50:05.923Z,42.30
2019-03-29T22:52:34.429Z,46.67
2019-03-29T22:55:03.544Z,51.27
2019-03-29T22:57:32.008Z,47.27
2019-03-29T23:00:00.691Z,48.07
2019-03-29T23:02:29.268Z,46.40
2019-03-29T23:04:57.728Z,41.57
2019-03-29T23:07:26.196Z,38.10
2019-03-29T23:09:54.639Z,40.80
2019-03-29T23:12:23.112Z,39.30
2019-03-29T23:14:52.222Z,40.33
2019-03-29T23:17:20.719Z,45.17
2019-03-29T23:19:49.184Z,40.43
2019-03-29T23:22:17.658Z,36.40
2019-03-29T23:24:46.105Z,35.23
2019-03-29T23:27:14.571Z,34.40
2019-03-29T23:29:43.020Z,39.07
2019-03-29T23:32:11.494Z,37.50
2019-03-29T23:34:39.956Z,40.27
2019-03-29T23:37:08.393Z,34.07
2019-03-29T23:39:36.863Z,38.00
2019-03-29T23:42:05.304Z,38.70
2019-03-29T23:44:33.856Z,39.37
2019-03-29T23:47:02.328Z,41.47
2019-03-29T23:49:30.772Z,44.43
2019-03-29T23:51:59.303Z,37.10
2019-03-29T23:54:27.747Z,38.13
2019-03-29T23:56:56.240Z,35.60
2019-03-29T23:59:24.688Z,36.80
